Time;durP1;ratioP1;P1;durP2;ratioP2;P2;SDS_P1;SDS_P2;PMS_P1;PMS_P2;Temp;Humidity;BMP_temperature;BMP_pressure;BME280_temperature;BME280_humidity;BME280_pressure;Samples;Min_cycle;Max_cycle;Signal;HPM_P1;HPM_P2
2020/12/30 00:00:10;;;;;;;1.50;0.23;;;;;;;4.87;100.00;98796.88;4950207;28;20442;-83
2020/12/30 00:02:39;;;;;;;1.40;0.20;;;;;;;5.03;100.00;98797.44;4945036;28;20240;-83
2020/12/30 00:05:10;;;;;;;1.20;0.10;;;;;;;5.12;100.00;98796.03;4947470;28;20430;-83
2020/12/30 00:07:36;;;;;;;1.60;0.40;;;;;;;4.98;100.00;98798.53;4969159;28;20206;-84
2020/12/30 00:10:08;;;;;;;1.93;0.53;;;;;;;4.97;100.00;98799.66;4951153;28;20554;-84
2020/12/30 00:12:35;;;;;;;3.03;0.57;;;;;;;4.78;100.00;98789.13;4961716;28;20444;-84
2020/12/30 00:15:01;;;;;;;1.20;0.13;;;;;;;4.63;100.00;98789.34;4933280;28;20434;-83
2020/12/30 00:17:27;;;;;;;1.83;0.40;;;;;;;4.75;100.00;98787.19;4965973;28;20558;-83
2020/12/30 00:19:53;;;;;;;1.60;0.17;;;;;;;4.84;100.00;98792.25;4972723;28;20179;-83
2020/12/30 00:22:18;;;;;;;1.97;0.40;;;;;;;4.80;100.00;98789.53;4944373;28;21051;-83
2020/12/30 00:24:44;;;;;;;2.30;0.70;;;;;;;4.63;100.00;98792.00;4951267;28;20467;-83
2020/12/30 00:27:10;;;;;;;2.07;0.40;;;;;;;4.65;100.00;98805.69;4966838;28;20768;-83
2020/12/30 00:29:35;;;;;;;2.03;0.37;;;;;;;4.68;100.00;98795.13;4991698;28;20526;-82
2020/12/30 00:32:01;;;;;;;2.13;0.80;;;;;;;4.63;100.00;98802.66;4951343;28;20182;-83
2020/12/30 00:34:28;;;;;;;3.73;0.30;;;;;;;4.59;100.00;98802.59;5000576;28;20551;-83
2020/12/30 00:36:53;;;;;;;1.50;0.50;;;;;;;4.62;100.00;98804.53;4942224;28;20300;-82
2020/12/30 00:39:19;;;;;;;1.83;0.43;;;;;;;4.66;100.00;98807.25;4976580;28;20457;-82
2020/12/30 00:41:44;;;;;;;4.00;1.37;;;;;;;4.82;100.00;98810.53;4959753;28;20182;-83
2020/12/30 00:44:10;;;;;;;1.70;0.50;;;;;;;4.91;100.00;98809.13;4992253;28;20189;-83
2020/12/30 00:46:36;;;;;;;3.63;0.53;;;;;;;4.76;100.00;98807.41;4965123;28;20221;-83
2020/12/30 00:49:02;;;;;;;2.33;0.70;;;;;;;4.90;100.00;98815.56;4954167;28;20197;-83
2020/12/30 00:51:28;;;;;;;1.23;0.10;;;;;;;4.99;100.00;98821.41;4952639;28;20677;-84
2020/12/30 00:53:54;;;;;;;2.50;0.47;;;;;;;4.93;100.00;98830.84;4938062;28;20434;-83
2020/12/30 00:56:19;;;;;;;1.70;0.50;;;;;;;4.83;100.00;98820.81;4953458;28;20241;-83
2020/12/30 00:58:46;;;;;;;2.30;0.40;;;;;;;4.69;100.00;98833.19;4968310;28;20197;-83
2020/12/30 01:01:18;;;;;;;3.80;0.80;;;;;;;4.59;100.00;98829.22;4997138;28;20798;-82
2020/12/30 01:04:07;;;;;;;1.87;0.40;;;;;;;4.64;100.00;98828.94;4946171;28;20495;-82
2020/12/30 01:06:32;;;;;;;1.60;0.27;;;;;;;4.75;100.00;98842.41;4952758;28;20477;-82
2020/12/30 01:08:58;;;;;;;2.00;0.63;;;;;;;4.78;100.00;98837.09;4936031;28;20178;-83
2020/12/30 01:11:30;;;;;;;2.70;0.57;;;;;;;4.73;100.00;98839.31;4984275;28;20254;-82
2020/12/30 01:13:58;;;;;;;1.80;0.30;;;;;;;4.75;100.00;98847.72;4957447;28;20200;-83
2020/12/30 01:16:25;;;;;;;2.30;0.53;;;;;;;4.77;100.00;98846.25;4955488;28;20441;-82
2020/12/30 01:18:51;;;;;;;3.00;0.80;;;;;;;4.80;100.00;98845.53;4971736;28;20456;-82
2020/12/30 01:21:16;;;;;;;4.23;1.33;;;;;;;4.83;100.00;98844.03;4999625;28;20442;-83
2020/12/30 01:23:42;;;;;;;2.70;0.77;;;;;;;4.88;100.00;98849.81;4999520;28;20646;-82
2020/12/30 01:26:28;;;;;;;1.47;0.30;;;;;;;4.83;100.00;98854.69;4958206;28;20475;-82
2020/12/30 01:28:54;;;;;;;1.67;0.33;;;;;;;4.79;100.00;98851.22;4964467;28;20563;-82
2020/12/30 01:31:25;;;;;;;3.67;0.60;;;;;;;4.95;100.00;98849.94;4962692;28;20476;-82
2020/12/30 01:33:51;;;;;;;1.40;0.43;;;;;;;4.78;100.00;98858.44;4954544;28;20207;-83
2020/12/30 01:36:17;;;;;;;3.37;0.63;;;;;;;4.85;100.00;98863.88;4974274;28;20503;-83
2020/12/30 01:38:42;;;;;;;2.30;0.50;;;;;;;4.87;100.00;98863.53;4977499;28;20261;-82
2020/12/30 01:41:08;;;;;;;4.20;1.40;;;;;;;4.76;100.00;98858.06;4977148;28;20195;-83
2020/12/30 01:43:33;;;;;;;2.07;0.53;;;;;;;4.80;100.00;98861.50;4975274;28;20178;-82
2020/12/30 01:45:59;;;;;;;2.10;0.63;;;;;;;4.88;100.00;98862.41;4970071;28;20305;-83
2020/12/30 01:48:25;;;;;;;2.47;0.87;;;;;;;5.11;100.00;98863.84;4968634;28;20213;-83
2020/12/30 01:50:51;;;;;;;4.17;0.80;;;;;;;4.88;100.00;98873.06;4968184;28;21025;-82
2020/12/30 01:53:17;;;;;;;2.27;0.40;;;;;;;4.87;100.00;98864.28;4957465;28;20528;-83
2020/12/30 01:55:43;;;;;;;2.97;0.80;;;;;;;4.72;100.00;98870.56;4962710;28;20206;-82
2020/12/30 01:58:10;;;;;;;4.30;0.60;;;;;;;4.82;100.00;98859.25;4960524;28;20442;-82
2020/12/30 02:00:37;;;;;;;1.97;0.50;;;;;;;4.98;100.00;98862.53;4964339;28;20469;-83
2020/12/30 02:03:04;;;;;;;2.60;0.80;;;;;;;4.90;100.00;98866.22;4963933;28;21005;-83
2020/12/30 02:05:31;;;;;;;2.10;0.57;;;;;;;5.03;100.00;98864.13;4954743;28;20434;-82
2020/12/30 02:08:01;;;;;;;2.07;0.67;;;;;;;5.05;100.00;98870.59;4957331;28;20810;-82
2020/12/30 02:10:27;;;;;;;2.43;1.00;;;;;;;5.12;100.00;98864.59;4954237;28;20461;-82
2020/12/30 02:12:57;;;;;;;2.13;0.77;;;;;;;4.97;100.00;98866.34;4974734;28;20463;-82
2020/12/30 02:15:23;;;;;;;2.53;0.40;;;;;;;4.92;100.00;98876.53;4973585;28;20530;-82
2020/12/30 02:17:49;;;;;;;2.57;0.67;;;;;;;4.84;100.00;98888.25;4962043;28;20460;-81
2020/12/30 02:20:14;;;;;;;3.03;1.00;;;;;;;4.81;100.00;98883.63;4956599;28;20426;-82
2020/12/30 02:22:43;;;;;;;3.70;0.53;;;;;;;4.80;100.00;98877.50;4973885;28;20676;-82
2020/12/30 02:25:08;;;;;;;1.43;0.43;;;;;;;4.87;100.00;98874.97;4952270;28;20179;-83
2020/12/30 02:27:34;;;;;;;2.27;0.83;;;;;;;4.83;100.00;98876.81;4965097;28;21183;-82
2020/12/30 02:29:59;;;;;;;2.20;0.70;;;;;;;4.98;100.00;98877.75;4952579;28;20308;-82
2020/12/30 02:32:45;;;;;;;3.23;0.60;;;;;;;5.03;100.00;98872.13;4971691;28;20175;-82
2020/12/30 02:35:11;;;;;;;1.90;0.47;;;;;;;4.91;100.00;98883.00;4958779;28;20190;-82
2020/12/30 02:37:37;;;;;;;2.37;0.40;;;;;;;4.93;100.00;98880.75;4942315;28;21111;-82
2020/12/30 02:40:03;;;;;;;1.40;0.17;;;;;;;5.04;100.00;98890.44;4956469;28;20533;-82
2020/12/30 02:42:29;;;;;;;3.37;0.70;;;;;;;5.04;100.00;98877.09;4970668;28;20194;-82
2020/12/30 02:45:02;;;;;;;4.80;1.10;;;;;;;5.15;100.00;98893.25;4968162;28;21059;-82
2020/12/30 02:47:28;;;;;;;2.10;0.70;;;;;;;5.07;100.00;98897.69;4974929;28;20465;-82
2020/12/30 02:49:54;;;;;;;3.07;0.67;;;;;;;5.12;100.00;98888.63;4973070;28;20925;-82
2020/12/30 02:52:19;;;;;;;1.87;0.70;;;;;;;5.01;100.00;98888.50;4953463;28;20205;-82
2020/12/30 02:54:44;;;;;;;2.00;0.60;;;;;;;4.97;100.00;98890.34;4956968;28;20182;-82
2020/12/30 02:57:10;;;;;;;1.40;0.20;;;;;;;4.91;100.00;98899.78;4974040;28;20260;-82
2020/12/30 02:59:35;;;;;;;2.20;0.50;;;;;;;5.00;100.00;98900.28;4969867;28;20198;-82
2020/12/30 03:02:01;;;;;;;2.40;0.30;;;;;;;5.08;100.00;98899.25;4949412;28;20261;-82
2020/12/30 03:04:26;;;;;;;3.43;0.70;;;;;;;4.85;100.00;98893.22;4973112;28;20282;-82
2020/12/30 03:06:52;;;;;;;2.50;0.30;;;;;;;4.83;100.00;98897.34;4967049;28;20299;-82
2020/12/30 03:09:17;;;;;;;2.00;0.37;;;;;;;4.82;100.00;98901.16;4955758;28;20182;-82
2020/12/30 03:11:48;;;;;;;1.83;0.60;;;;;;;4.85;100.00;98901.22;4975303;28;20215;-82
2020/12/30 03:14:13;;;;;;;3.80;0.90;;;;;;;4.84;100.00;98889.00;4966197;28;20193;-81
2020/12/30 03:16:39;;;;;;;4.30;1.13;;;;;;;4.93;100.00;98902.06;4988703;28;20540;-82
2020/12/30 03:19:04;;;;;;;1.80;0.60;;;;;;;4.89;100.00;98902.03;4990149;28;20182;-82
2020/12/30 03:21:30;;;;;;;2.73;0.60;;;;;;;4.92;100.00;98900.53;4955503;28;20519;-81
2020/12/30 03:23:55;;;;;;;1.30;0.20;;;;;;;4.80;100.00;98909.50;4942401;28;20216;-82
2020/12/30 03:26:21;;;;;;;2.00;0.60;;;;;;;4.86;100.00;98899.31;4943220;28;20432;-81
2020/12/30 03:28:46;;;;;;;2.30;0.70;;;;;;;4.79;100.00;98910.66;4963566;28;20174;-82
2020/12/30 03:31:12;;;;;;;4.03;1.17;;;;;;;4.70;100.00;98904.81;4942127;28;20197;-81
2020/12/30 03:33:37;;;;;;;3.47;0.67;;;;;;;4.87;100.00;98900.84;4980329;28;20190;-81
2020/12/30 03:36:03;;;;;;;1.60;0.33;;;;;;;4.85;100.00;98906.53;4962805;28;20301;-81
2020/12/30 03:38:28;;;;;;;2.50;0.80;;;;;;;4.98;100.00;98910.53;4962254;28;20193;-81
2020/12/30 03:40:54;;;;;;;1.93;0.57;;;;;;;5.01;100.00;98898.38;4974740;28;20187;-82
2020/12/30 03:43:20;;;;;;;2.23;0.60;;;;;;;4.94;100.00;98901.72;4959979;28;20182;-82
2020/12/30 03:45:45;;;;;;;1.83;0.43;;;;;;;4.92;100.00;98895.97;5029704;28;20229;-82
2020/12/30 03:48:11;;;;;;;2.17;0.47;;;;;;;5.07;100.00;98899.59;4975885;28;20265;-82
2020/12/30 03:50:36;;;;;;;2.30;0.30;;;;;;;5.07;100.00;98896.94;4938995;28;20211;-81
2020/12/30 03:53:02;;;;;;;2.10;0.43;;;;;;;4.94;100.00;98917.72;4929675;28;20189;-81
2020/12/30 03:55:47;;;;;;;1.47;0.50;;;;;;;4.90;100.00;98908.88;4969735;28;20186;-82
2020/12/30 03:58:13;;;;;;;1.60;0.20;;;;;;;4.80;100.00;98916.75;4967696;28;20229;-82
2020/12/30 04:00:38;;;;;;;1.60;0.43;;;;;;;4.75;100.00;98912.50;4969037;28;20545;-81
2020/12/30 04:03:04;;;;;;;2.13;0.30;;;;;;;4.83;100.00;98914.13;4953327;28;20237;-82
2020/12/30 04:05:29;;;;;;;1.83;0.43;;;;;;;5.01;100.00;98915.16;4967502;28;20189;-81
2020/12/30 04:07:55;;;;;;;2.60;1.13;;;;;;;4.99;100.00;98922.75;4950906;28;20273;-81
2020/12/30 04:10:20;;;;;;;3.70;0.80;;;;;;;5.06;100.00;98925.50;4935833;28;20715;-82
2020/12/30 04:12:46;;;;;;;1.90;0.40;;;;;;;5.19;100.00;98931.38;4944947;28;20650;-82
2020/12/30 04:15:11;;;;;;;3.30;0.93;;;;;;;5.02;100.00;98932.69;4970216;28;20839;-82
2020/12/30 04:17:37;;;;;;;3.10;0.50;;;;;;;4.97;100.00;98935.69;4964453;28;20799;-81
2020/12/30 04:20:03;;;;;;;3.17;0.70;;;;;;;5.13;100.00;98941.59;4954344;28;20190;-80
2020/12/30 04:22:28;;;;;;;3.57;1.20;;;;;;;5.07;100.00;98945.69;4946762;28;20198;-83
2020/12/30 04:24:54;;;;;;;3.67;0.97;;;;;;;5.16;100.00;98948.13;4969858;28;20205;-83
2020/12/30 04:27:39;;;;;;;2.10;0.83;;;;;;;4.95;100.00;98948.59;4971213;28;20222;-83
2020/12/30 04:30:05;;;;;;;1.70;0.50;;;;;;;5.04;100.00;98945.66;4916787;29;20216;-83
2020/12/30 04:32:30;;;;;;;2.83;0.83;;;;;;;5.32;100.00;98956.72;4935300;29;20836;-82
2020/12/30 04:34:56;;;;;;;2.80;0.90;;;;;;;5.14;100.00;98950.38;4950143;28;20197;-82
2020/12/30 04:37:21;;;;;;;2.43;0.87;;;;;;;5.12;100.00;98957.97;5010310;22;20221;-81
2020/12/30 04:39:47;;;;;;;2.47;0.43;;;;;;;5.11;100.00;98956.44;5066269;28;20213;-81
2020/12/30 04:42:17;;;;;;;3.10;0.43;;;;;;;5.11;100.00;98961.78;5052620;28;20197;-81
2020/12/30 04:44:48;;;;;;;2.30;0.70;;;;;;;5.04;100.00;98956.31;5055718;28;20629;-81
2020/12/30 04:47:14;;;;;;;2.10;0.60;;;;;;;5.07;100.00;98966.28;4988869;28;20817;-81
2020/12/30 04:49:39;;;;;;;3.30;0.87;;;;;;;4.96;100.00;98968.00;5074797;28;20454;-81
2020/12/30 04:52:06;;;;;;;1.77;0.63;;;;;;;4.93;100.00;98966.06;5068402;28;20239;-81
2020/12/30 04:54:33;;;;;;;2.00;0.50;;;;;;;4.91;100.00;98958.44;5061648;28;20204;-81
2020/12/30 04:57:01;;;;;;;2.10;0.60;;;;;;;4.90;100.00;98972.88;5055008;28;20541;-81
2020/12/30 04:59:35;;;;;;;2.53;0.60;;;;;;;4.93;100.00;98969.53;5084006;28;20428;-81
2020/12/30 05:02:05;;;;;;;3.30;0.90;;;;;;;4.91;100.00;98965.66;5010761;28;20427;-81
2020/12/30 05:04:35;;;;;;;4.90;0.90;;;;;;;4.93;100.00;98966.06;5073574;28;20447;-81
2020/12/30 05:07:08;;;;;;;2.80;0.83;;;;;;;4.98;100.00;98969.19;5075928;28;20464;-79
2020/12/30 05:09:35;;;;;;;1.70;0.50;;;;;;;4.96;100.00;98971.47;5073641;28;20535;-79
2020/12/30 05:12:15;;;;;;;2.00;0.50;;;;;;;4.95;100.00;98969.16;5079749;28;20513;-79
2020/12/30 05:14:41;;;;;;;2.03;0.80;;;;;;;4.93;100.00;98966.84;5077797;28;20448;-79
2020/12/30 05:17:08;;;;;;;2.00;0.50;;;;;;;4.95;100.00;98963.81;5060167;28;20789;-79
2020/12/30 05:19:34;;;;;;;2.10;0.60;;;;;;;5.03;100.00;98976.13;5035518;28;20239;-78
2020/12/30 05:22:00;;;;;;;2.87;0.90;;;;;;;5.29;100.00;98976.88;5057266;28;20431;-78
2020/12/30 05:24:27;;;;;;;2.30;0.50;;;;;;;5.14;100.00;98971.72;4995280;28;20444;-79
2020/12/30 05:26:52;;;;;;;2.90;0.70;;;;;;;5.31;100.00;98974.63;5072255;28;20281;-79
2020/12/30 05:29:19;;;;;;;2.90;0.87;;;;;;;5.31;100.00;98979.19;5071414;28;20452;-79
2020/12/30 05:31:50;;;;;;;2.13;0.60;;;;;;;5.28;100.00;98982.59;5008552;28;20762;-79
2020/12/30 05:34:18;;;;;;;1.67;0.30;;;;;;;5.14;100.00;98990.38;5077645;28;20447;-79
2020/12/30 05:36:45;;;;;;;1.80;0.50;;;;;;;5.07;100.00;98992.97;5073949;28;20558;-79
2020/12/30 05:39:19;;;;;;;2.33;0.60;;;;;;;5.12;100.00;98988.09;5008731;28;20451;-79
2020/12/30 05:41:45;;;;;;;3.10;0.77;;;;;;;4.99;100.00;98989.44;5011576;28;20447;-79
2020/12/30 05:44:19;;;;;;;3.30;0.47;;;;;;;5.10;100.00;98993.00;5078712;28;21194;-79
2020/12/30 05:46:45;;;;;;;1.90;0.40;;;;;;;4.97;100.00;98993.56;5051102;28;20205;-79
2020/12/30 05:49:32;;;;;;;2.73;1.13;;;;;;;4.85;100.00;98996.44;5046507;28;20447;-78
2020/12/30 05:51:58;;;;;;;1.60;0.30;;;;;;;4.76;100.00;98994.03;5004506;28;20201;-81
2020/12/30 05:54:24;;;;;;;1.97;0.37;;;;;;;4.79;100.00;98998.63;5001949;28;20871;-81
2020/12/30 05:56:49;;;;;;;2.13;0.70;;;;;;;4.94;100.00;98995.03;5072995;28;20464;-81
2020/12/30 05:59:20;;;;;;;1.80;0.60;;;;;;;4.96;100.00;98992.78;5077119;28;20189;-80
2020/12/30 06:01:50;;;;;;;2.70;0.37;;;;;;;4.98;100.00;99011.88;5076163;28;20193;-80
2020/12/30 06:04:19;;;;;;;2.13;0.60;;;;;;;4.84;100.00;99006.31;5011229;28;20436;-81
2020/12/30 06:06:46;;;;;;;1.90;0.63;;;;;;;4.86;100.00;99009.38;5006081;28;20459;-81
2020/12/30 06:09:18;;;;;;;2.07;0.30;;;;;;;4.88;100.00;99020.47;5072144;28;20436;-80
2020/12/30 06:11:54;;;;;;;1.87;0.40;;;;;;;4.89;100.00;99016.69;5083879;28;20498;-81
2020/12/30 06:14:21;;;;;;;1.80;0.40;;;;;;;4.83;100.00;99020.00;5074868;28;20976;-81
2020/12/30 06:16:47;;;;;;;2.30;0.60;;;;;;;5.08;100.00;99021.94;5065771;28;20862;-81
2020/12/30 06:19:13;;;;;;;1.40;0.17;;;;;;;5.09;100.00;99028.81;5065360;28;20502;-80
2020/12/30 06:21:43;;;;;;;2.23;0.60;;;;;;;5.12;100.00;99028.09;5082267;28;20436;-81
2020/12/30 06:24:12;;;;;;;1.73;0.50;;;;;;;4.94;100.00;99032.38;5062562;28;20440;-80
2020/12/30 06:26:39;;;;;;;2.10;0.40;;;;;;;5.05;100.00;99035.97;5008333;28;20475;-80
2020/12/30 06:29:12;;;;;;;2.67;1.00;;;;;;;5.05;100.00;99035.97;5078086;28;20476;-81
2020/12/30 06:31:43;;;;;;;2.50;0.50;;;;;;;4.88;100.00;99027.72;5064001;28;20510;-79
2020/12/30 06:34:09;;;;;;;1.67;0.47;;;;;;;4.81;100.00;99033.69;5061516;28;20452;-81
2020/12/30 06:36:35;;;;;;;3.47;0.80;;;;;;;4.76;100.00;99044.69;5061594;28;20561;-79
2020/12/30 06:39:21;;;;;;;2.73;0.63;;;;;;;4.80;100.00;99032.16;5024187;28;20530;-80
2020/12/30 06:42:00;;;;;;;2.47;0.70;;;;;;;4.92;100.00;99045.31;5006401;28;20262;-81
2020/12/30 06:44:43;;;;;;;3.00;0.93;;;;;;;4.81;100.00;99044.38;5078224;28;20930;-80
2020/12/30 06:47:10;;;;;;;2.07;0.80;;;;;;;4.75;100.00;99045.78;5082031;28;20471;-81
2020/12/30 06:49:37;;;;;;;2.30;0.70;;;;;;;4.88;100.00;99044.47;5079404;28;20955;-81
2020/12/30 06:52:28;;;;;;;2.47;0.63;;;;;;;5.00;100.00;99051.50;5012112;28;20472;-81
2020/12/30 06:54:54;;;;;;;2.77;0.63;;;;;;;4.93;100.00;99054.09;5013181;28;20459;-81
2020/12/30 06:57:40;;;;;;;1.60;0.50;;;;;;;5.19;100.00;99054.88;5078815;28;21010;-80
2020/12/30 07:00:31;;;;;;;1.50;0.30;;;;;;;5.11;100.00;99058.56;5007749;28;20185;-79
2020/12/30 07:03:17;;;;;;;1.80;0.50;;;;;;;4.99;100.00;99071.31;5071633;28;20507;-79
2020/12/30 07:05:43;;;;;;;2.43;0.40;;;;;;;4.92;100.00;99077.31;5080182;28;20447;-79
2020/12/30 07:08:10;;;;;;;2.43;0.50;;;;;;;4.76;100.00;99068.66;5055846;28;20988;-78
2020/12/30 07:10:45;;;;;;;2.33;0.53;;;;;;;4.77;100.00;99074.75;5074197;28;20470;-79
2020/12/30 07:13:39;;;;;;;1.60;0.43;;;;;;;4.87;100.00;99077.59;5075295;28;20498;-79
2020/12/30 07:16:18;;;;;;;2.70;0.33;;;;;;;4.75;100.00;99083.09;5081468;28;20872;-77
2020/12/30 07:18:50;;;;;;;1.40;0.10;;;;;;;4.75;100.00;99088.44;5065528;28;20458;-77
2020/12/30 07:21:17;;;;;;;1.53;0.50;;;;;;;4.94;100.00;99075.06;5008838;28;20447;-79
2020/12/30 07:23:45;;;;;;;2.67;0.87;;;;;;;5.13;100.00;99092.91;5058397;28;20420;-77
2020/12/30 07:26:15;;;;;;;1.80;0.50;;;;;;;5.09;100.00;99089.41;5081104;28;20436;-80
2020/12/30 07:28:46;;;;;;;5.63;0.60;;;;;;;4.99;100.00;99098.00;5094855;28;20454;-78
2020/12/30 07:31:12;;;;;;;2.70;0.60;;;;;;;5.09;100.00;99098.16;5079933;28;20478;-77
2020/12/30 07:33:39;;;;;;;3.00;1.03;;;;;;;4.98;100.00;99094.56;5072391;28;20451;-80
2020/12/30 07:36:08;;;;;;;3.80;1.33;;;;;;;4.82;100.00;99101.88;5081597;28;20475;-79
2020/12/30 07:38:35;;;;;;;2.00;0.50;;;;;;;4.86;100.00;99104.63;5058666;28;20441;-80
2020/12/30 07:41:03;;;;;;;2.07;0.40;;;;;;;4.77;100.00;99112.06;5061255;28;20521;-79
2020/12/30 07:43:29;;;;;;;1.40;0.40;;;;;;;4.89;100.00;99115.34;5006265;28;20994;-79
2020/12/30 07:46:16;;;;;;;1.60;0.40;;;;;;;4.72;100.00;99115.81;5080677;28;20439;-79
2020/12/30 07:48:42;;;;;;;2.10;0.40;;;;;;;4.90;100.00;99119.56;5074333;28;20195;-80
2020/12/30 07:51:07;;;;;;;1.87;0.40;;;;;;;4.96;100.00;99120.81;5039466;28;20472;-79
2020/12/30 07:53:33;;;;;;;2.00;0.40;;;;;;;4.97;100.00;99114.34;5070433;28;20404;-81
2020/12/30 07:55:59;;;;;;;2.17;0.63;;;;;;;4.85;100.00;99113.75;5076468;28;20191;-76
2020/12/30 07:58:25;;;;;;;1.90;0.30;;;;;;;4.72;100.00;99121.16;5054692;28;20644;-81
2020/12/30 08:00:52;;;;;;;2.20;0.50;;;;;;;4.61;100.00;99120.16;5078077;28;20223;-81
2020/12/30 08:03:20;;;;;;;1.50;0.30;;;;;;;4.68;100.00;99127.53;5060292;28;20451;-79
2020/12/30 08:05:46;;;;;;;1.73;0.50;;;;;;;4.84;100.00;99139.63;5063859;28;20444;-80
2020/12/30 08:08:12;;;;;;;2.50;0.63;;;;;;;4.72;100.00;99139.81;5073586;28;20463;-79
2020/12/30 08:10:38;;;;;;;1.27;0.17;;;;;;;4.85;100.00;99141.19;5011815;28;20475;-78
2020/12/30 08:13:08;;;;;;;1.70;0.30;;;;;;;4.85;100.00;99138.53;5076661;28;20581;-79
2020/12/30 08:15:33;;;;;;;2.00;0.50;;;;;;;4.85;100.00;99146.53;5064023;28;20220;-80
2020/12/30 08:18:00;;;;;;;1.53;0.30;;;;;;;4.75;100.00;99151.66;5070512;28;20491;-81
2020/12/30 08:20:25;;;;;;;2.00;0.50;;;;;;;4.71;100.00;99156.13;5055324;28;20544;-81
2020/12/30 08:22:59;;;;;;;2.60;0.77;;;;;;;4.71;100.00;99156.91;5013186;28;20528;-80
2020/12/30 08:25:25;;;;;;;2.80;0.67;;;;;;;4.59;100.00;99165.06;5010908;28;20184;-80
2020/12/30 08:27:50;;;;;;;3.00;0.57;;;;;;;4.67;100.00;99174.72;5097526;28;21175;-80
2020/12/30 08:30:16;;;;;;;2.00;0.40;;;;;;;4.71;100.00;99167.56;5082196;28;20208;-79
2020/12/30 08:32:57;;;;;;;1.93;0.50;;;;;;;4.77;100.00;99174.16;5081808;28;20212;-80
2020/12/30 08:35:30;;;;;;;2.53;0.33;;;;;;;4.84;100.00;99168.97;5072540;28;20268;-80
2020/12/30 08:38:12;;;;;;;1.70;0.40;;;;;;;4.69;100.00;99175.16;5010772;28;20478;-80
2020/12/30 08:40:39;;;;;;;2.30;0.40;;;;;;;4.78;100.00;99188.28;5080248;28;20534;-80
2020/12/30 08:43:18;;;;;;;3.37;1.30;;;;;;;4.84;100.00;99194.88;5013156;28;20437;-78
2020/12/30 08:46:10;;;;;;;1.90;0.70;;;;;;;4.78;100.00;99197.03;5066146;28;20497;-79
2020/12/30 08:48:45;;;;;;;1.50;0.40;;;;;;;4.63;100.00;99195.22;5072912;28;20467;-78
2020/12/30 08:51:24;;;;;;;2.03;0.80;;;;;;;4.78;100.00;99189.03;5061945;28;20455;-80
2020/12/30 08:53:49;;;;;;;1.93;0.70;;;;;;;4.66;100.00;99185.75;5008377;28;20455;-80
2020/12/30 08:56:17;;;;;;;1.60;0.10;;;;;;;4.81;100.00;99193.69;5081148;28;20477;-80
2020/12/30 08:58:51;;;;;;;2.60;0.57;;;;;;;4.84;100.00;99202.88;5060825;28;20607;-77
2020/12/30 09:01:27;;;;;;;2.40;0.30;;;;;;;4.79;100.00;99198.59;5011583;28;20436;-80
2020/12/30 09:03:53;;;;;;;3.63;0.97;;;;;;;4.66;100.00;99193.75;5013102;28;20449;-79
2020/12/30 09:06:29;;;;;;;1.20;0.10;;;;;;;4.59;100.00;99207.69;5008640;28;20458;-79
2020/12/30 09:09:18;;;;;;;1.90;0.43;;;;;;;4.65;100.00;99202.84;5063761;28;20439;-79
2020/12/30 09:11:46;;;;;;;3.43;0.53;;;;;;;4.64;100.00;99212.78;5013265;28;20965;-81
2020/12/30 09:14:14;;;;;;;1.27;0.23;;;;;;;4.43;100.00;99207.00;5002108;28;20477;-80
2020/12/30 09:16:57;;;;;;;2.70;0.60;;;;;;;4.41;100.00;99212.66;5021868;28;20458;-80
2020/12/30 09:19:22;;;;;;;4.13;0.90;;;;;;;4.51;100.00;99212.13;5015338;28;20446;-80
2020/12/30 09:21:48;;;;;;;3.17;0.37;;;;;;;4.71;100.00;99212.13;5013798;28;20433;-80
2020/12/30 09:24:14;;;;;;;3.87;1.20;;;;;;;4.59;100.00;99213.03;5015759;28;20525;-80
2020/12/30 09:26:40;;;;;;;2.53;0.93;;;;;;;4.81;100.00;99224.88;5033680;28;20985;-80
2020/12/30 09:29:20;;;;;;;2.27;0.53;;;;;;;4.78;100.00;99218.34;5017315;28;20534;-80
2020/12/30 09:31:57;;;;;;;2.77;0.57;;;;;;;4.78;100.00;99215.69;4998358;28;20751;-80
2020/12/30 09:34:30;;;;;;;1.77;0.57;;;;;;;4.85;100.00;99225.72;5014349;28;20877;-80
2020/12/30 09:36:57;;;;;;;2.27;0.70;;;;;;;4.81;100.00;99222.22;4999194;28;20544;-79
2020/12/30 09:39:23;;;;;;;1.60;0.30;;;;;;;4.80;100.00;99234.78;5012643;28;20434;-80
2020/12/30 09:41:49;;;;;;;1.63;0.30;;;;;;;5.10;100.00;99238.44;5028145;28;20457;-79
2020/12/30 09:44:14;;;;;;;1.60;0.50;;;;;;;4.76;100.00;99241.97;5005456;28;20497;-77
2020/12/30 09:46:50;;;;;;;1.47;0.37;;;;;;;4.77;100.00;99235.50;5010399;28;20702;-80
2020/12/30 09:49:19;;;;;;;2.27;0.70;;;;;;;4.85;100.00;99242.50;5020164;28;20193;-80
2020/12/30 09:51:45;;;;;;;2.47;0.37;;;;;;;4.61;100.00;99239.34;5078501;28;20538;-80
2020/12/30 09:54:10;;;;;;;1.47;0.40;;;;;;;4.90;100.00;99250.22;5044044;28;20525;-78
2020/12/30 09:56:36;;;;;;;1.83;0.50;;;;;;;4.81;100.00;99241.66;5016642;28;20466;-81
2020/12/30 09:59:02;;;;;;;1.87;0.50;;;;;;;4.63;100.00;99243.19;5058946;28;20559;-80
2020/12/30 10:01:30;;;;;;;3.60;0.80;;;;;;;4.49;100.00;99250.91;5078431;28;20193;-81
2020/12/30 10:03:57;;;;;;;1.30;0.20;;;;;;;4.53;100.00;99249.06;5061629;28;20432;-81
2020/12/30 10:06:22;;;;;;;1.93;0.37;;;;;;;4.52;100.00;99242.22;5068364;28;20487;-79
2020/12/30 10:08:48;;;;;;;1.37;0.37;;;;;;;4.43;100.00;99237.06;5015479;28;20867;-80
2020/12/30 10:11:17;;;;;;;1.50;0.30;;;;;;;4.49;100.00;99248.25;5074167;28;20201;-79
2020/12/30 10:13:42;;;;;;;1.47;0.30;;;;;;;4.50;100.00;99242.56;5089738;28;20181;-80
2020/12/30 10:16:08;;;;;;;1.93;0.40;;;;;;;4.81;100.00;99243.56;5057479;28;20436;-79
2020/12/30 10:18:33;;;;;;;2.07;0.67;;;;;;;4.45;100.00;99239.41;5063187;28;20238;-79
2020/12/30 10:20:59;;;;;;;2.20;0.80;;;;;;;4.40;100.00;99248.44;5066384;28;20181;-80
2020/12/30 10:23:24;;;;;;;2.07;0.30;;;;;;;4.51;100.00;99245.97;5077669;28;20195;-80
2020/12/30 10:25:49;;;;;;;1.60;0.37;;;;;;;4.51;100.00;99238.75;5077949;28;20264;-79
2020/12/30 10:28:17;;;;;;;3.33;1.10;;;;;;;4.60;100.00;99251.91;5080845;28;20284;-80
2020/12/30 10:30:43;;;;;;;3.27;0.50;;;;;;;4.50;100.00;99247.13;5097557;28;20494;-80
2020/12/30 10:33:08;;;;;;;1.90;0.40;;;;;;;4.63;100.00;99245.09;5076841;28;20726;-80
2020/12/30 10:35:34;;;;;;;2.30;0.20;;;;;;;4.58;100.00;99238.94;5074453;28;20179;-80
2020/12/30 10:37:59;;;;;;;1.37;0.27;;;;;;;4.65;100.00;99253.50;5019680;28;20212;-80
2020/12/30 10:40:25;;;;;;;2.83;0.50;;;;;;;4.66;100.00;99250.50;5078163;28;20802;-78
2020/12/30 10:42:50;;;;;;;2.67;0.67;;;;;;;4.93;100.00;99252.19;5078807;28;20177;-80
2020/12/30 10:45:16;;;;;;;2.83;0.33;;;;;;;4.92;100.00;99252.53;5042462;28;20196;-79
2020/12/30 10:47:41;;;;;;;1.83;0.60;;;;;;;5.06;100.00;99250.16;5085614;28;20219;-80
2020/12/30 10:50:07;;;;;;;3.60;0.70;;;;;;;4.73;100.00;99250.66;5081660;28;20257;-80
2020/12/30 10:52:33;;;;;;;2.17;0.60;;;;;;;4.89;100.00;99254.03;5021601;28;20252;-80
2020/12/30 10:54:58;;;;;;;3.10;0.90;;;;;;;4.73;100.00;99261.31;5082744;28;20417;-79
2020/12/30 10:57:24;;;;;;;2.40;0.53;;;;;;;4.75;100.00;99258.28;5087922;28;20282;-81
2020/12/30 10:59:50;;;;;;;1.33;0.20;;;;;;;4.57;100.00;99247.25;5086867;28;20188;-78
2020/12/30 11:02:15;;;;;;;2.77;0.60;;;;;;;4.75;100.00;99259.06;5060026;28;20180;-77
2020/12/30 11:04:41;;;;;;;2.30;0.70;;;;;;;4.93;100.00;99254.88;5000014;28;20444;-80
2020/12/30 11:07:06;;;;;;;1.93;0.40;;;;;;;4.79;100.00;99254.56;5071483;28;20216;-78
2020/12/30 11:09:32;;;;;;;1.40;0.23;;;;;;;4.93;100.00;99254.09;5075479;28;20663;-79
2020/12/30 11:12:18;;;;;;;2.20;0.50;;;;;;;4.86;100.00;99252.03;5078759;28;20293;-84
2020/12/30 11:14:43;;;;;;;2.03;0.30;;;;;;;4.92;100.00;99253.31;5008380;28;20196;-79
2020/12/30 11:17:09;;;;;;;1.70;0.30;;;;;;;4.74;100.00;99257.53;5001656;28;20525;-79
2020/12/30 11:19:34;;;;;;;1.30;0.20;;;;;;;4.76;100.00;99260.63;5017970;28;20291;-79
2020/12/30 11:21:59;;;;;;;3.77;0.93;;;;;;;4.75;100.00;99258.28;4993766;28;20189;-79
2020/12/30 11:24:25;;;;;;;2.60;0.70;;;;;;;4.88;100.00;99260.47;4985604;28;20207;-79
2020/12/30 11:26:50;;;;;;;1.53;0.23;;;;;;;4.94;100.00;99252.94;4993024;28;20689;-79
2020/12/30 11:29:19;;;;;;;1.70;0.40;;;;;;;4.77;100.00;99256.81;5017791;28;20188;-79
2020/12/30 11:31:45;;;;;;;2.20;0.67;;;;;;;4.89;100.00;99259.34;5001374;28;20736;-79
2020/12/30 11:34:11;;;;;;;2.00;0.50;;;;;;;4.89;100.00;99259.34;5018866;28;20442;-79
2020/12/30 11:36:37;;;;;;;2.13;0.47;;;;;;;4.92;100.00;99247.19;5000832;28;20212;-78
2020/12/30 11:39:04;;;;;;;1.50;0.30;;;;;;;4.97;100.00;99257.59;5018905;28;20542;-78